createdAt,value
2019-03-25T00:01:14.304Z,76.70
2019-03-25T00:03:47.587Z,76.20
2019-03-25T00:06:21.084Z,76.60
2019-03-25T00:09:04.886Z,76.30
2019-03-25T00:11:29.352Z,76.20
2019-03-25T00:14:02.841Z,76.10
2019-03-25T00:16:35.825Z,75.70
2019-03-25T00:19:09.285Z,75.70
2019-03-25T00:21:42.803Z,75.00
2019-03-25T00:24:15.745Z,76.80
2019-03-25T00:26:48.804Z,77.00
2019-03-25T00:29:21.566Z,76.70
2019-03-25T00:31:54.904Z,75.40
2019-03-25T00:34:27.946Z,74.70
2019-03-25T00:37:01.046Z,75.20
2019-03-25T00:39:34.325Z,75.00
2019-03-25T00:42:07.853Z,74.10
2019-03-25T00:44:40.626Z,72.30
2019-03-25T00:47:14.185Z,73.30
2019-03-25T00:49:47.245Z,73.90
2019-03-25T00:52:20.124Z,72.70
2019-03-25T00:54:53.085Z,73.10
2019-03-25T00:57:26.044Z,71.70
2019-03-25T00:59:59.005Z,72.90
2019-03-25T01:02:32.326Z,73.60
2019-03-25T01:05:05.202Z,73.80
2019-03-25T01:07:38.184Z,73.70
2019-03-25T01:10:10.966Z,74.90
2019-03-25T01:12:44.104Z,75.30
2019-03-25T01:15:17.344Z,74.80
2019-03-25T01:17:50.704Z,73.50
2019-03-25T01:20:23.553Z,74.20
2019-03-25T01:22:56.485Z,73.00
2019-03-25T01:25:29.445Z,73.30
2019-03-25T01:28:02.988Z,73.80
2019-03-25T01:30:36.164Z,74.10
2019-03-25T01:33:09.365Z,75.30
2019-03-25T01:35:43.185Z,76.40
2019-03-25T01:38:16.792Z,76.60
2019-03-25T01:40:53.332Z,74.70
2019-03-25T01:43:26.505Z,74.40
2019-03-25T01:45:59.464Z,74.80
2019-03-25T01:48:32.885Z,75.20
2019-03-25T01:51:05.924Z,75.00
2019-03-25T01:53:39.213Z,74.70
2019-03-25T01:56:12.004Z,74.90
2019-03-25T01:58:44.827Z,75.70
2019-03-25T02:01:18.047Z,76.00
2019-03-25T02:03:51.093Z,75.50
2019-03-25T02:06:24.164Z,75.60
2019-03-25T02:08:57.324Z,73.30
2019-03-25T02:11:30.904Z,71.30
2019-03-25T02:14:03.805Z,71.80
2019-03-25T02:16:36.805Z,72.80
2019-03-25T02:19:10.145Z,76.40
2019-03-25T02:21:43.193Z,74.70
2019-03-25T02:24:16.044Z,74.30
2019-03-25T02:26:49.205Z,74.30
2019-03-25T02:29:22.204Z,73.20
2019-03-25T02:31:55.426Z,73.20
2019-03-25T02:34:28.405Z,74.40
2019-03-25T02:37:01.346Z,74.00
2019-03-25T02:39:34.552Z,73.30
2019-03-25T02:42:07.424Z,73.50
2019-03-25T02:44:40.806Z,74.80
2019-03-25T02:47:13.566Z,75.60
2019-03-25T02:49:46.410Z,76.20
2019-03-25T02:52:19.444Z,77.30
2019-03-25T02:54:52.267Z,78.90
2019-03-25T02:57:25.146Z,78.80
2019-03-25T02:59:58.040Z,77.60
2019-03-25T03:02:30.975Z,80.40
2019-03-25T03:05:03.926Z,80.30
2019-03-25T03:07:36.737Z,80.10
2019-03-25T03:10:09.945Z,82.20
2019-03-25T03:12:43.129Z,83.60
2019-03-25T03:15:16.886Z,84.80
2019-03-25T03:17:50.096Z,86.40
2019-03-25T03:20:23.965Z,85.10
2019-03-25T03:22:57.072Z,85.30
2019-03-25T03:25:30.108Z,86.30
2019-03-25T03:28:03.035Z,85.00
2019-03-25T03:30:36.124Z,85.40
2019-03-25T03:33:09.926Z,86.30
2019-03-25T03:35:46.371Z,87.40
2019-03-25T03:38:18.405Z,87.90
2019-03-25T03:40:51.699Z,87.30
2019-03-25T03:43:24.510Z,87.10
2019-03-25T03:45:57.845Z,86.40
2019-03-25T03:48:30.814Z,88.30
2019-03-25T03:51:03.689Z,89.60
2019-03-25T03:53:36.466Z,89.80
2019-03-25T03:56:13.297Z,89.90
2019-03-25T03:58:44.246Z,90.10
2019-03-25T04:01:17.799Z,89.40
2019-03-25T04:03:50.625Z,89.50
2019-03-25T04:06:23.646Z,88.70
2019-03-25T04:08:57.095Z,88.80
2019-03-25T04:11:29.967Z,89.60
2019-03-25T04:14:02.724Z,89.50
2019-03-25T04:16:35.815Z,89.60
2019-03-25T04:19:08.906Z,90.10
2019-03-25T04:21:42.245Z,90.30
2019-03-25T04:24:15.108Z,90.00
2019-03-25T04:26:48.566Z,90.00
2019-03-25T04:29:21.647Z,90.00
2019-03-25T04:31:54.525Z,90.30
2019-03-25T04:34:28.465Z,90.00
2019-03-25T04:37:01.233Z,90.10
2019-03-25T04:39:34.326Z,90.10
2019-03-25T04:42:07.426Z,90.50
2019-03-25T04:44:40.304Z,90.30
2019-03-25T04:47:13.245Z,90.60
2019-03-25T04:49:46.145Z,90.50
2019-03-25T04:52:18.985Z,90.50
2019-03-25T04:54:51.905Z,90.50
2019-03-25T04:57:24.765Z,90.80
2019-03-25T04:59:57.804Z,90.70
2019-03-25T05:02:31.085Z,90.60
2019-03-25T05:05:03.793Z,90.50
2019-03-25T05:07:36.617Z,90.90
2019-03-25T05:10:09.785Z,91.20
2019-03-25T05:12:42.666Z,92.10
2019-03-25T05:15:16.325Z,92.50
2019-03-25T05:17:49.765Z,92.80
2019-03-25T05:20:22.627Z,93.00
2019-03-25T05:22:55.528Z,93.40
2019-03-25T05:25:28.399Z,93.50
2019-03-25T05:28:01.232Z,92.80
2019-03-25T05:30:34.531Z,93.10
2019-03-25T05:33:07.364Z,93.60
2019-03-25T05:35:41.405Z,93.60
2019-03-25T05:38:14.744Z,93.80
2019-03-25T05:40:47.524Z,93.60
2019-03-25T05:43:21.290Z,93.40
2019-03-25T05:45:54.269Z,92.60
2019-03-25T05:48:27.184Z,93.10
2019-03-25T05:51:00.106Z,93.50
2019-03-25T05:53:33.065Z,93.70
2019-03-25T05:56:06.085Z,93.40
2019-03-25T05:58:39.008Z,93.00
2019-03-25T06:01:14.424Z,92.90
2019-03-25T06:03:47.265Z,92.30
2019-03-25T06:06:20.125Z,92.50
2019-03-25T06:08:53.045Z,92.10
2019-03-25T06:11:25.805Z,92.50
2019-03-25T06:13:58.704Z,92.50
2019-03-25T06:16:36.412Z,92.70
2019-03-25T06:19:09.115Z,91.30
2019-03-25T06:21:42.085Z,91.90
2019-03-25T06:24:16.005Z,91.20
2019-03-25T06:26:49.075Z,92.00
2019-03-25T06:29:21.944Z,91.80
2019-03-25T06:31:54.860Z,91.70
2019-03-25T06:34:27.806Z,92.50
2019-03-25T06:37:00.584Z,91.80
2019-03-25T06:39:33.445Z,91.90
2019-03-25T06:42:06.346Z,93.30
2019-03-25T06:44:39.466Z,93.30
2019-03-25T06:47:12.281Z,93.10
2019-03-25T06:49:45.365Z,92.40
2019-03-25T06:52:18.238Z,92.30
2019-03-25T06:54:51.173Z,92.70
2019-03-25T06:57:25.777Z,92.50
2019-03-25T06:59:59.124Z,92.60
2019-03-25T07:02:31.965Z,92.80
2019-03-25T07:05:04.985Z,91.40
2019-03-25T07:07:38.245Z,91.90
2019-03-25T07:10:11.168Z,91.90
2019-03-25T07:12:44.165Z,91.60
2019-03-25T07:15:17.449Z,90.80
2019-03-25T07:17:50.324Z,90.70
2019-03-25T07:20:24.125Z,90.20
2019-03-25T07:22:57.126Z,90.00
2019-03-25T07:25:29.986Z,90.10
2019-03-25T07:28:02.730Z,91.30
2019-03-25T07:30:35.925Z,91.60
2019-03-25T07:33:08.865Z,91.30
2019-03-25T07:35:41.852Z,91.20
2019-03-25T07:38:14.736Z,92.20
2019-03-25T07:40:47.925Z,92.10
2019-03-25T07:43:20.746Z,92.00
2019-03-25T07:45:53.845Z,92.20
2019-03-25T07:48:26.766Z,92.50
2019-03-25T07:50:59.665Z,92.20
2019-03-25T07:53:33.306Z,92.50
2019-03-25T07:56:06.852Z,92.60
2019-03-25T07:58:39.969Z,92.50
2019-03-25T08:01:13.164Z,92.90
2019-03-25T08:03:46.562Z,92.60
2019-03-25T08:06:19.496Z,92.20
2019-03-25T08:09:03.141Z,93.00
2019-03-25T08:11:27.402Z,93.00
2019-03-25T08:14:00.321Z,93.00
2019-03-25T08:16:33.307Z,92.30
2019-03-25T08:19:06.205Z,92.60
2019-03-25T08:21:39.046Z,91.90
2019-03-25T08:24:12.585Z,92.10
2019-03-25T08:26:45.474Z,91.90
2019-03-25T08:29:19.004Z,91.90
2019-03-25T08:31:52.313Z,91.40
2019-03-25T08:34:25.233Z,91.00
2019-03-25T08:36:58.246Z,90.50
2019-03-25T08:39:32.085Z,90.60
2019-03-25T08:42:04.966Z,90.70
2019-03-25T08:44:37.985Z,90.70
2019-03-25T08:47:10.985Z,90.70
2019-03-25T08:49:44.425Z,88.40
2019-03-25T08:52:17.327Z,89.00
2019-03-25T08:54:50.565Z,88.80
2019-03-25T08:57:23.846Z,87.60
2019-03-25T08:59:57.792Z,88.90
2019-03-25T09:02:31.974Z,87.80
2019-03-25T09:05:05.046Z,87.50
2019-03-25T09:07:38.273Z,89.10
2019-03-25T09:10:11.146Z,86.40
2019-03-25T09:12:44.446Z,86.70
2019-03-25T09:15:17.268Z,85.00
2019-03-25T09:17:50.766Z,85.20
2019-03-25T09:20:24.325Z,86.60
2019-03-25T09:22:57.285Z,82.90
2019-03-25T09:25:30.985Z,83.80
2019-03-25T09:28:03.844Z,83.00
2019-03-25T09:30:36.624Z,84.00
2019-03-25T09:33:09.771Z,84.60
2019-03-25T09:35:42.631Z,85.90
2019-03-25T09:38:16.066Z,85.30
2019-03-25T09:40:48.993Z,84.00
2019-03-25T09:43:21.845Z,81.80
2019-03-25T09:45:54.849Z,78.30
2019-03-25T09:48:27.885Z,78.90
2019-03-25T09:51:00.764Z,79.20
2019-03-25T09:53:33.753Z,80.00
2019-03-25T09:56:06.564Z,81.40
2019-03-25T09:58:39.665Z,82.70
2019-03-25T10:01:12.625Z,81.30
2019-03-25T10:03:45.613Z,84.70
2019-03-25T10:06:18.492Z,85.20
2019-03-25T10:08:52.585Z,83.80
2019-03-25T10:11:25.433Z,86.40
2019-03-25T10:13:58.765Z,84.70
2019-03-25T10:16:31.645Z,85.30
2019-03-25T10:19:04.489Z,85.20
2019-03-25T10:21:37.466Z,87.10
2019-03-25T10:24:10.960Z,85.00
2019-03-25T10:26:43.772Z,88.60
2019-03-25T10:29:20.445Z,88.40
2019-03-25T10:31:53.208Z,87.00
2019-03-25T10:34:26.105Z,87.20
2019-03-25T10:36:58.973Z,88.00
2019-03-25T10:39:32.084Z,87.70
2019-03-25T10:42:04.966Z,88.60
2019-03-25T10:44:38.366Z,87.80
2019-03-25T10:47:11.925Z,88.90
2019-03-25T10:49:44.825Z,89.40
2019-03-25T10:52:17.765Z,89.80
2019-03-25T10:54:50.951Z,90.40
2019-03-25T10:57:24.126Z,90.60
2019-03-25T10:59:57.664Z,90.00
2019-03-25T11:02:30.504Z,91.30
2019-03-25T11:05:03.581Z,91.10
2019-03-25T11:07:36.997Z,92.20
2019-03-25T11:10:10.524Z,92.10
2019-03-25T11:12:43.764Z,93.00
2019-03-25T11:15:16.625Z,93.00
2019-03-25T11:17:49.624Z,92.90
2019-03-25T11:20:22.414Z,93.00
2019-03-25T11:22:55.645Z,92.20
2019-03-25T11:25:28.664Z,93.00
2019-03-25T11:28:01.868Z,93.30
2019-03-25T11:30:34.854Z,91.50
2019-03-25T11:33:07.744Z,92.20
2019-03-25T11:35:41.224Z,93.40
2019-03-25T11:38:14.645Z,93.20
2019-03-25T11:40:47.844Z,91.70
2019-03-25T11:43:20.764Z,92.70
2019-03-25T11:45:53.665Z,90.90
2019-03-25T11:48:27.004Z,93.00
2019-03-25T11:51:00.380Z,90.80
2019-03-25T11:53:33.784Z,90.20
2019-03-25T11:56:06.805Z,89.10
2019-03-25T11:58:39.652Z,90.30
2019-03-25T12:01:12.564Z,85.80
2019-03-25T12:03:45.525Z,84.20
2019-03-25T12:06:19.048Z,86.90
2019-03-25T12:08:51.821Z,87.00
2019-03-25T12:11:25.544Z,87.40
2019-03-25T12:13:58.727Z,88.60
2019-03-25T12:16:31.687Z,89.50
2019-03-25T12:19:04.624Z,90.10
2019-03-25T12:21:37.846Z,90.60
2019-03-25T12:24:10.765Z,91.40
2019-03-25T12:26:44.244Z,91.50
2019-03-25T12:29:17.484Z,86.50
2019-03-25T12:31:50.464Z,86.10
2019-03-25T12:34:23.427Z,87.60
2019-03-25T12:36:56.364Z,90.60
2019-03-25T12:39:29.564Z,90.00
2019-03-25T12:42:02.764Z,92.10
2019-03-25T12:44:35.665Z,94.40
2019-03-25T12:47:08.904Z,94.00
2019-03-25T12:49:42.005Z,83.90
2019-03-25T12:52:15.343Z,84.60
2019-03-25T12:54:48.824Z,80.90
2019-03-25T12:57:21.665Z,78.90
2019-03-25T12:59:55.164Z,79.10
2019-03-25T13:02:28.485Z,77.80
2019-03-25T13:05:01.611Z,79.10
2019-03-25T13:07:34.385Z,79.30
2019-03-25T13:10:07.427Z,80.70
2019-03-25T13:12:40.484Z,80.40
2019-03-25T13:15:13.906Z,80.50
2019-03-25T13:17:46.804Z,76.80
2019-03-25T13:20:19.605Z,78.00
2019-03-25T13:22:52.612Z,77.30
2019-03-25T13:25:26.052Z,74.70
2019-03-25T13:27:58.945Z,78.00
2019-03-25T13:30:31.970Z,74.20
2019-03-25T13:33:04.924Z,72.10
2019-03-25T13:35:38.204Z,73.20
2019-03-25T13:38:11.125Z,72.70
2019-03-25T13:40:44.572Z,72.70
2019-03-25T13:43:17.785Z,71.00
2019-03-25T13:45:50.605Z,76.20
2019-03-25T13:48:23.685Z,70.50
2019-03-25T13:50:56.824Z,73.00
2019-03-25T13:53:30.814Z,71.80
2019-03-25T13:56:03.684Z,72.60
2019-03-25T13:58:37.086Z,72.10
2019-03-25T14:01:10.506Z,70.40
2019-03-25T14:03:43.385Z,69.20
2019-03-25T14:06:16.724Z,69.20
2019-03-25T14:08:49.766Z,71.90
2019-03-25T14:11:22.524Z,70.90
2019-03-25T14:13:55.845Z,66.80
2019-03-25T14:16:28.985Z,69.60
2019-03-25T14:19:01.829Z,71.10
2019-03-25T14:21:34.696Z,71.30
2019-03-25T14:24:07.605Z,69.20
2019-03-25T14:26:40.407Z,70.10
2019-03-25T14:29:13.527Z,71.10
2019-03-25T14:31:47.205Z,69.80
2019-03-25T14:34:20.353Z,69.10
2019-03-25T14:36:53.266Z,68.60
2019-03-25T14:39:26.753Z,69.80
2019-03-25T14:41:59.611Z,70.50
2019-03-25T14:44:32.395Z,70.50
2019-03-25T14:47:05.125Z,68.90
2019-03-25T14:49:37.985Z,68.70
2019-03-25T14:52:10.945Z,69.80
2019-03-25T14:54:44.345Z,69.30
2019-03-25T14:57:17.165Z,68.30
2019-03-25T14:59:50.564Z,69.20
2019-03-25T15:02:23.953Z,69.40
2019-03-25T15:04:56.987Z,68.40
2019-03-25T15:07:30.254Z,72.20
2019-03-25T15:10:03.216Z,70.40
2019-03-25T15:12:36.134Z,69.00
2019-03-25T15:15:09.868Z,69.50
2019-03-25T15:17:43.445Z,68.40
2019-03-25T15:20:16.445Z,66.90
2019-03-25T15:22:49.853Z,66.20
2019-03-25T15:25:23.164Z,65.50
2019-03-25T15:27:56.085Z,64.60
2019-03-25T15:30:35.980Z,63.40
2019-03-25T15:33:04.065Z,62.10
2019-03-25T15:35:37.044Z,60.20
2019-03-25T15:38:10.033Z,61.50
2019-03-25T15:40:43.045Z,62.20
2019-03-25T15:43:16.105Z,58.90
2019-03-25T15:45:51.853Z,60.00
2019-03-25T15:48:24.245Z,60.00
2019-03-25T15:50:57.572Z,60.80
2019-03-25T15:53:30.493Z,59.90
2019-03-25T15:56:03.456Z,59.40
2019-03-25T15:58:36.393Z,59.40
2019-03-25T16:01:09.705Z,59.70
2019-03-25T16:03:42.564Z,60.50
2019-03-25T16:06:15.433Z,59.30
2019-03-25T16:08:48.885Z,60.70
2019-03-25T16:11:21.984Z,59.00
2019-03-25T16:13:55.907Z,58.70
2019-03-25T16:16:29.093Z,59.50
2019-03-25T16:19:01.836Z,57.30
2019-03-25T16:21:34.684Z,56.70
2019-03-25T16:24:07.899Z,56.50
2019-03-25T16:26:40.961Z,57.30
2019-03-25T16:29:13.764Z,56.90
2019-03-25T16:31:47.067Z,55.30
2019-03-25T16:34:20.045Z,57.10
2019-03-25T16:36:53.446Z,55.90
2019-03-25T16:39:26.426Z,58.40
2019-03-25T16:41:59.408Z,55.40
2019-03-25T16:44:32.325Z,54.80
2019-03-25T16:47:05.205Z,57.30
2019-03-25T16:49:38.045Z,54.80
2019-03-25T16:52:11.568Z,55.70
2019-03-25T16:54:44.373Z,54.50
2019-03-25T16:57:17.373Z,55.70
2019-03-25T16:59:50.225Z,55.80
2019-03-25T17:02:23.085Z,55.40
2019-03-25T17:04:55.966Z,56.00
2019-03-25T17:07:28.945Z,56.30
2019-03-25T17:10:02.230Z,57.50
2019-03-25T17:12:35.004Z,56.90
2019-03-25T17:15:08.089Z,56.90
2019-03-25T17:17:41.685Z,56.90
2019-03-25T17:20:14.525Z,57.30
2019-03-25T17:22:47.353Z,57.80
2019-03-25T17:25:20.604Z,58.50
2019-03-25T17:27:53.873Z,59.20
2019-03-25T17:30:26.814Z,60.00
2019-03-25T17:32:59.772Z,60.40
2019-03-25T17:35:32.546Z,62.10
2019-03-25T17:38:05.367Z,61.90
2019-03-25T17:40:38.825Z,62.60
2019-03-25T17:43:11.905Z,61.50
2019-03-25T17:45:44.805Z,61.50
2019-03-25T17:48:17.666Z,62.70
2019-03-25T17:50:52.909Z,62.60
2019-03-25T17:53:25.687Z,64.10
2019-03-25T17:55:58.596Z,62.60
2019-03-25T17:58:31.429Z,64.80
2019-03-25T18:01:05.888Z,66.00
2019-03-25T18:03:38.886Z,65.20
2019-03-25T18:06:11.784Z,65.60
2019-03-25T18:08:44.680Z,65.60
2019-03-25T18:11:18.084Z,65.60
2019-03-25T18:13:51.010Z,65.90
2019-03-25T18:16:23.974Z,66.70
2019-03-25T18:18:57.309Z,66.20
2019-03-25T18:21:30.293Z,66.90
2019-03-25T18:24:03.103Z,64.90
2019-03-25T18:26:35.977Z,66.30
2019-03-25T18:29:08.830Z,65.50
2019-03-25T18:31:43.685Z,64.30
2019-03-25T18:34:16.383Z,64.40
2019-03-25T18:36:51.569Z,64.00
2019-03-25T18:39:24.366Z,64.40
2019-03-25T18:41:57.381Z,64.70
2019-03-25T18:44:30.424Z,65.10
2019-03-25T18:47:03.298Z,65.10
2019-03-25T18:49:36.106Z,64.70
2019-03-25T18:52:09.072Z,63.10
2019-03-25T18:54:42.045Z,62.80
2019-03-25T18:57:15.020Z,64.20
2019-03-25T18:59:47.907Z,64.10
2019-03-25T19:02:22.407Z,63.00
2019-03-25T19:04:55.355Z,65.10
2019-03-25T19:07:28.607Z,64.00
2019-03-25T19:10:01.617Z,62.80
2019-03-25T19:12:34.388Z,62.00
2019-03-25T19:15:07.290Z,61.90
2019-03-25T19:17:41.470Z,59.50
2019-03-25T19:20:14.425Z,59.30
2019-03-25T19:22:47.144Z,59.50
2019-03-25T19:25:20.010Z,60.30
2019-03-25T19:27:53.337Z,60.40
2019-03-25T19:30:26.200Z,60.30
2019-03-25T19:32:58.929Z,60.60
2019-03-25T19:35:32.166Z,61.10
2019-03-25T19:38:05.127Z,60.90
2019-03-25T19:40:38.266Z,61.00
2019-03-25T19:43:10.985Z,61.00
2019-03-25T19:45:43.946Z,61.80
2019-03-25T19:48:17.325Z,61.30
2019-03-25T19:50:50.298Z,61.10
2019-03-25T19:53:23.205Z,62.00
2019-03-25T19:55:56.345Z,61.20
2019-03-25T19:58:29.482Z,60.70
2019-03-25T20:01:02.467Z,62.00
2019-03-25T20:03:35.304Z,63.40
2019-03-25T20:06:08.230Z,63.80
2019-03-25T20:08:41.018Z,64.90
2019-03-25T20:11:13.950Z,64.90
2019-03-25T20:13:47.242Z,66.30
2019-03-25T20:16:20.151Z,66.50
2019-03-25T20:18:53.016Z,66.70
2019-03-25T20:21:25.885Z,66.70
2019-03-25T20:23:58.928Z,68.10
2019-03-25T20:26:31.907Z,68.90
2019-03-25T20:29:06.495Z,69.30
2019-03-25T20:31:39.501Z,69.70
2019-03-25T20:34:12.447Z,70.40
2019-03-25T20:36:45.358Z,71.00
2019-03-25T20:39:19.396Z,71.50
2019-03-25T20:41:52.375Z,71.90
2019-03-25T20:44:25.232Z,71.80
2019-03-25T20:46:58.182Z,71.90
2019-03-25T20:49:31.166Z,72.00
2019-03-25T20:52:04.107Z,72.30
2019-03-25T20:54:36.965Z,72.20
2019-03-25T20:57:10.030Z,72.10
2019-03-25T20:59:43.438Z,72.10
2019-03-25T21:02:16.306Z,72.90
2019-03-25T21:04:49.501Z,73.20
2019-03-25T21:07:22.820Z,72.30
2019-03-25T21:09:55.736Z,71.90
2019-03-25T21:12:28.963Z,72.10
2019-03-25T21:15:02.305Z,73.10
2019-03-25T21:17:35.355Z,73.00
2019-03-25T21:20:08.231Z,73.10
2019-03-25T21:22:40.993Z,73.10
2019-03-25T21:25:14.023Z,73.30
2019-03-25T21:27:46.924Z,75.10
2019-03-25T21:30:19.693Z,75.10
2019-03-25T21:32:58.176Z,75.00
2019-03-25T21:35:27.693Z,75.60
2019-03-25T21:38:00.649Z,75.70
2019-03-25T21:40:34.599Z,76.00
2019-03-25T21:43:07.779Z,76.60
2019-03-25T21:45:40.797Z,77.80
2019-03-25T21:48:13.876Z,79.50
2019-03-25T21:50:46.744Z,81.00
2019-03-25T21:53:19.851Z,81.70
2019-03-25T21:55:53.028Z,82.40
2019-03-25T21:58:26.215Z,83.30
2019-03-25T22:00:59.144Z,83.00
2019-03-25T22:03:32.585Z,83.30
2019-03-25T22:06:05.444Z,84.60
2019-03-25T22:08:38.524Z,84.60
2019-03-25T22:11:11.944Z,83.80
2019-03-25T22:13:45.844Z,84.60
2019-03-25T22:16:18.744Z,83.20
2019-03-25T22:18:52.153Z,84.00
2019-03-25T22:21:25.896Z,83.60
2019-03-25T22:23:58.884Z,84.20
2019-03-25T22:26:32.284Z,84.50
2019-03-25T22:29:05.124Z,83.50
2019-03-25T22:31:38.105Z,84.10
2019-03-25T22:34:11.147Z,82.90
2019-03-25T22:36:43.865Z,82.50
2019-03-25T22:39:16.832Z,83.40
2019-03-25T22:41:49.820Z,82.00
2019-03-25T22:44:22.724Z,83.40
2019-03-25T22:46:55.968Z,83.50
2019-03-25T22:49:28.753Z,82.50
2019-03-25T22:52:01.704Z,82.60
2019-03-25T22:54:34.725Z,83.00
2019-03-25T22:57:07.705Z,83.80
2019-03-25T22:59:40.885Z,84.30
2019-03-25T23:02:13.766Z,83.90
2019-03-25T23:04:46.685Z,83.50
2019-03-25T23:07:19.947Z,84.70
2019-03-25T23:09:52.805Z,84.70
2019-03-25T23:12:26.333Z,84.20
2019-03-25T23:14:59.215Z,83.30
2019-03-25T23:17:32.453Z,84.30
2019-03-25T23:20:05.524Z,84.10
2019-03-25T23:22:38.392Z,83.00
2019-03-25T23:25:11.645Z,83.10
2019-03-25T23:27:44.748Z,82.80
2019-03-25T23:30:17.595Z,83.90
2019-03-25T23:32:51.166Z,85.10
2019-03-25T23:35:24.085Z,86.00
2019-03-25T23:37:56.852Z,85.80
2019-03-25T23:40:30.634Z,84.30
2019-03-25T23:43:03.664Z,83.80
2019-03-25T23:45:36.807Z,84.30
2019-03-25T23:48:09.884Z,84.30
2019-03-25T23:50:42.729Z,83.30
2019-03-25T23:53:17.165Z,83.70
2019-03-25T23:55:50.085Z,83.80
2019-03-25T23:58:23.150Z,84.20
